Time;durP1;ratioP1;P1;durP2;ratioP2;P2;SDS_P1;SDS_P2;PMS_P1;PMS_P2;Temp;Humidity;BMP_temperature;BMP_pressure;BME280_temperature;BME280_humidity;BME280_pressure;Samples;Min_cycle;Max_cycle;Signal;HPM_P1;HPM_P2
2023/02/25 00:00:48;;;;;;;;;;;;;;;2.98;87.79;97295.97;5057669;28;19994;-87
2023/02/25 00:03:14;;;;;;;;;;;;;;;3.33;86.62;97294.94;5053298;28;20373;-85
2023/02/25 00:05:40;;;;;;;;;;;;;;;3.23;86.45;97290.34;5032591;28;19996;-86
2023/02/25 00:08:05;;;;;;;;;;;;;;;3.31;86.83;97286.47;5035159;28;19929;-85
2023/02/25 00:10:32;;;;;;;;;;;;;;;3.36;86.23;97282.09;5050979;28;20303;-85
2023/02/25 00:12:57;;;;;;;;;;;;;;;3.28;86.23;97294.84;5046940;28;19924;-86
2023/02/25 00:15:23;;;;;;;;;;;;;;;3.32;85.75;97290.72;5056614;28;19925;-85
2023/02/25 00:17:48;;;;;;;;;;;;;;;3.19;86.43;97291.81;5035225;28;20403;-85
2023/02/25 00:20:14;;;;;;;;;;;;;;;3.32;86.09;97296.00;5048247;28;20411;-85
2023/02/25 00:22:39;;;;;;;;;;;;;;;2.90;86.05;97287.66;5050137;28;20286;-86
2023/02/25 00:25:05;;;;;;;;;;;;;;;3.33;86.04;97306.31;5067773;28;20326;-86
2023/02/25 00:27:30;;;;;;;;;;;;;;;3.30;85.33;97293.59;5051377;28;19974;-86
2023/02/25 00:29:55;;;;;;;;;;;;;;;3.32;85.59;97296.78;5048813;28;19948;-84
2023/02/25 00:32:21;;;;;;;;;;;;;;;3.23;85.66;97311.44;5068440;28;19917;-86
2023/02/25 00:34:47;;;;;;;;;;;;;;;3.33;85.18;97308.13;5054775;28;20372;-86
2023/02/25 00:37:12;;;;;;;;;;;;;;;3.24;85.02;97301.66;5069927;28;20015;-86
2023/02/25 00:39:41;;;;;;;;;;;;;;;3.34;85.26;97283.38;5071898;28;19916;-86
2023/02/25 00:42:10;;;;;;;;;;;;;;;3.32;85.15;97285.47;5051329;28;19924;-84
2023/02/25 00:44:35;;;;;;;;;;;;;;;3.30;85.02;97288.31;5072784;28;19920;-86
2023/02/25 00:47:01;;;;;;;;;;;;;;;3.27;85.52;97299.34;5053243;28;19960;-84
2023/02/25 00:49:26;;;;;;;;;;;;;;;3.03;85.53;97305.81;5065746;28;20591;-85
2023/02/25 00:51:52;;;;;;;;;;;;;;;3.22;85.58;97306.38;5063388;28;19962;-85
2023/02/25 00:54:17;;;;;;;;;;;;;;;3.14;85.73;97304.13;5055236;28;19921;-86
2023/02/25 00:56:42;;;;;;;;;;;;;;;2.98;86.07;97311.78;5048516;28;19927;-84
2023/02/25 00:59:07;;;;;;;;;;;;;;;3.15;85.89;97311.00;5032976;28;19925;-84
2023/02/25 01:01:33;;;;;;;;;;;;;;;3.11;85.51;97302.78;5046465;28;20437;-85
2023/02/25 01:03:58;;;;;;;;;;;;;;;3.22;85.18;97306.38;5047544;28;19929;-86
2023/02/25 01:06:24;;;;;;;;;;;;;;;3.08;85.18;97308.50;5054500;28;20356;-86
2023/02/25 01:08:50;;;;;;;;;;;;;;;3.27;84.72;97309.91;5044093;28;20406;-86
2023/02/25 01:11:19;;;;;;;;;;;;;;;3.24;84.95;97299.03;5066201;28;19964;-86
2023/02/25 01:13:45;;;;;;;;;;;;;;;3.21;85.26;97310.06;5046634;28;19925;-86
2023/02/25 01:16:12;;;;;;;;;;;;;;;3.14;85.17;97302.31;5049545;28;19956;-85
2023/02/25 01:18:37;;;;;;;;;;;;;;;3.20;84.58;97316.34;5065860;28;19931;-85
2023/02/25 01:21:03;;;;;;;;;;;;;;;3.32;84.94;97304.69;5075619;28;20304;-84
2023/02/25 01:23:29;;;;;;;;;;;;;;;3.21;85.37;97316.09;5040346;28;20528;-84
2023/02/25 01:25:54;;;;;;;;;;;;;;;3.19;85.12;97315.56;5034062;28;20644;-84
2023/02/25 01:28:19;;;;;;;;;;;;;;;3.07;85.36;97311.41;5047753;28;19920;-85
2023/02/25 01:30:46;;;;;;;;;;;;;;;3.06;85.66;97312.44;5038720;28;19956;-86
2023/02/25 01:33:11;;;;;;;;;;;;;;;3.14;85.18;97319.97;5052434;28;20376;-85
2023/02/25 01:35:36;;;;;;;;;;;;;;;3.13;85.68;97323.63;5067225;28;19927;-84
2023/02/25 01:38:02;;;;;;;;;;;;;;;3.03;85.96;97317.16;5066422;28;19920;-84
2023/02/25 01:40:27;;;;;;;;;;;;;;;3.15;86.00;97327.63;5050222;28;19920;-84
2023/02/25 01:42:52;;;;;;;;;;;;;;;3.04;84.75;97313.47;5057301;28;19980;-84
2023/02/25 01:45:20;;;;;;;;;;;;;;;3.17;85.26;97311.59;5052129;28;19921;-85
2023/02/25 01:48:12;;;;;;;;;;;;;;;3.24;85.33;97317.47;5049715;28;20001;-84
2023/02/25 01:50:46;;;;;;;;;;;;;;;3.27;85.38;97323.09;5065009;28;19916;-85
2023/02/25 01:53:12;;;;;;;;;;;;;;;3.26;85.34;97312.75;5039557;28;19927;-85
2023/02/25 01:55:38;;;;;;;;;;;;;;;3.29;84.81;97318.38;5036380;28;19987;-85
2023/02/25 01:58:04;;;;;;;;;;;;;;;3.33;85.06;97323.94;5053565;28;19931;-86
2023/02/25 02:00:30;;;;;;;;;;;;;;;3.13;85.39;97324.41;5047488;28;20870;-86
2023/02/25 02:02:56;;;;;;;;;;;;;;;3.12;84.87;97330.75;5051447;28;19927;-86
2023/02/25 02:05:24;;;;;;;;;;;;;;;3.24;85.21;97325.38;5051385;28;20611;-85
2023/02/25 02:07:49;;;;;;;;;;;;;;;3.09;85.36;97325.13;5050162;28;20140;-85
2023/02/25 02:10:16;;;;;;;;;;;;;;;3.11;85.32;97325.69;5050984;28;19931;-85
2023/02/25 02:12:43;;;;;;;;;;;;;;;3.22;85.50;97335.38;5053906;28;20035;-85
2023/02/25 02:15:10;;;;;;;;;;;;;;;3.27;84.87;97327.56;5068344;28;19936;-85
2023/02/25 02:17:35;;;;;;;;;;;;;;;3.15;85.38;97321.53;5062939;28;19921;-85
2023/02/25 02:20:13;;;;;;;;;;;;;;;3.28;84.65;97326.50;5056111;28;20376;-84
2023/02/25 02:22:44;;;;;;;;;;;;;;;3.12;85.16;97332.56;5051885;28;20015;-86
2023/02/25 02:25:10;;;;;;;;;;;;;;;3.11;85.37;97325.69;5056325;28;20358;-84
2023/02/25 02:27:38;;;;;;;;;;;;;;;3.31;84.88;97333.94;5050408;28;19981;-83
2023/02/25 02:30:24;;;;;;;;;;;;;;;3.26;85.08;97337.28;5058922;28;19931;-84
2023/02/25 02:32:59;;;;;;;;;;;;;;;3.22;84.43;97322.19;5050813;28;20055;-85
2023/02/25 02:35:47;;;;;;;;;;;;;;;3.31;84.65;97336.56;5052405;28;20017;-84
2023/02/25 02:38:34;;;;;;;;;;;;;;;3.25;84.72;97340.19;5068700;28;20683;-85
2023/02/25 02:41:23;;;;;;;;;;;;;;;3.25;84.40;97337.53;5050057;28;20883;-85
2023/02/25 02:44:05;;;;;;;;;;;;;;;3.29;84.76;97338.66;5054476;28;20388;-85
2023/02/25 02:46:44;;;;;;;;;;;;;;;3.24;84.32;97341.19;5051860;28;20011;-84
2023/02/25 02:49:13;;;;;;;;;;;;;;;3.20;84.28;97348.00;5051687;28;19917;-85
2023/02/25 02:51:59;;;;;;;;;;;;;;;3.13;84.20;97349.97;5048226;28;19924;-84
2023/02/25 02:54:28;;;;;;;;;;;;;;;3.12;84.48;97343.94;5049722;28;19920;-84
2023/02/25 02:56:55;;;;;;;;;;;;;;;3.25;84.44;97348.88;5065372;28;19960;-85
2023/02/25 02:59:28;;;;;;;;;;;;;;;3.23;84.02;97350.16;5038375;28;19921;-85
2023/02/25 03:01:58;;;;;;;;;;;;;;;3.13;84.57;97365.78;5054993;28;19940;-86
2023/02/25 03:04:26;;;;;;;;;;;;;;;3.26;83.93;97371.56;5072426;28;19916;-85
2023/02/25 03:06:56;;;;;;;;;;;;;;;3.20;83.99;97371.72;5050263;28;19982;-85
2023/02/25 03:09:24;;;;;;;;;;;;;;;3.25;84.13;97363.91;5055374;28;19927;-85
2023/02/25 03:11:49;;;;;;;;;;;;;;;3.30;83.81;97367.41;5056907;28;19975;-85
2023/02/25 03:14:14;;;;;;;;;;;;;;;3.23;84.03;97373.88;5048074;28;19920;-86
2023/02/25 03:16:43;;;;;;;;;;;;;;;3.14;84.35;97370.84;5042965;28;19935;-85
2023/02/25 03:19:17;;;;;;;;;;;;;;;3.23;83.95;97356.25;5049394;28;19971;-86
2023/02/25 03:21:45;;;;;;;;;;;;;;;3.18;84.23;97371.16;5046117;28;20011;-85
2023/02/25 03:24:15;;;;;;;;;;;;;;;3.30;84.31;97374.53;5044164;28;20580;-85
2023/02/25 03:26:41;;;;;;;;;;;;;;;3.09;84.28;97376.00;5063141;28;20003;-84
2023/02/25 03:29:18;;;;;;;;;;;;;;;3.24;84.59;97376.28;5026004;28;20074;-85
2023/02/25 03:31:55;;;;;;;;;;;;;;;3.30;83.97;97382.44;5059755;28;19925;-85
2023/02/25 03:34:23;;;;;;;;;;;;;;;3.27;83.99;97377.66;5053371;28;19925;-84
2023/02/25 03:36:53;;;;;;;;;;;;;;;3.26;84.14;97386.56;5051776;28;19932;-84
2023/02/25 03:39:21;;;;;;;;;;;;;;;3.22;84.96;97375.72;5070459;28;19917;-85
2023/02/25 03:41:49;;;;;;;;;;;;;;;3.15;84.78;97393.50;5049351;28;19917;-85
2023/02/25 03:44:17;;;;;;;;;;;;;;;3.21;85.19;97392.56;5065091;28;20397;-85
2023/02/25 03:46:44;;;;;;;;;;;;;;;3.09;84.75;97391.03;5054153;28;20372;-85
2023/02/25 03:49:12;;;;;;;;;;;;;;;3.15;84.54;97395.34;5065447;28;20350;-86
2023/02/25 03:51:39;;;;;;;;;;;;;;;3.09;85.16;97391.81;5066412;28;19983;-86
2023/02/25 03:54:05;;;;;;;;;;;;;;;3.04;85.11;97384.63;5066094;28;19925;-86
2023/02/25 03:56:39;;;;;;;;;;;;;;;3.21;84.83;97383.88;5056591;28;19952;-86
2023/02/25 03:59:04;;;;;;;;;;;;;;;3.18;85.42;97394.88;5053896;28;19921;-86
2023/02/25 04:01:30;;;;;;;;;;;;;;;3.07;85.08;97393.09;5046059;28;19925;-84
2023/02/25 04:03:55;;;;;;;;;;;;;;;3.03;85.89;97395.41;5066680;28;19927;-85
2023/02/25 04:06:21;;;;;;;;;;;;;;;3.08;85.20;97405.25;5048794;28;19920;-84
2023/02/25 04:08:47;;;;;;;;;;;;;;;2.99;85.37;97413.50;5049444;28;20538;-84
2023/02/25 04:11:12;;;;;;;;;;;;;;;3.19;84.99;97420.22;5046218;28;20043;-85
2023/02/25 04:13:38;;;;;;;;;;;;;;;2.89;84.82;97421.25;5045272;28;19972;-84
2023/02/25 04:16:03;;;;;;;;;;;;;;;3.15;85.07;97424.34;5030769;28;20400;-84
2023/02/25 04:18:28;;;;;;;;;;;;;;;2.92;86.32;97435.78;5044821;28;19924;-84
2023/02/25 04:20:54;;;;;;;;;;;;;;;2.91;85.61;97440.25;5049114;28;19921;-85
2023/02/25 04:23:19;;;;;;;;;;;;;;;3.11;85.46;97442.47;5046643;28;19936;-86
2023/02/25 04:25:44;;;;;;;;;;;;;;;2.77;85.96;97440.75;5048872;28;19921;-86
2023/02/25 04:28:10;;;;;;;;;;;;;;;2.97;86.03;97444.56;5048098;28;19928;-86
2023/02/25 04:30:36;;;;;;;;;;;;;;;3.06;85.01;97439.72;5047096;28;19921;-86
2023/02/25 04:33:01;;;;;;;;;;;;;;;3.08;85.00;97450.06;5045596;28;20011;-85
2023/02/25 04:35:26;;;;;;;;;;;;;;;3.11;85.33;97462.75;5051309;28;19932;-86
2023/02/25 04:37:51;;;;;;;;;;;;;;;2.86;84.97;97442.00;5046324;28;19963;-86
2023/02/25 04:40:18;;;;;;;;;;;;;;;2.98;85.13;97443.56;5046772;28;19960;-86
2023/02/25 04:42:44;;;;;;;;;;;;;;;3.06;85.46;97449.50;5048178;28;19929;-85
2023/02/25 04:45:10;;;;;;;;;;;;;;;2.69;85.46;97441.91;5052322;28;19925;-86
2023/02/25 04:48:00;;;;;;;;;;;;;;;3.01;85.75;97445.69;5071205;28;19948;-85
2023/02/25 04:50:25;;;;;;;;;;;;;;;3.07;85.14;97441.34;5070213;28;19917;-85
2023/02/25 04:52:51;;;;;;;;;;;;;;;3.13;85.32;97435.13;5036484;28;19924;-85
2023/02/25 04:55:17;;;;;;;;;;;;;;;2.96;85.46;97444.81;5035626;28;19924;-85
2023/02/25 04:57:42;;;;;;;;;;;;;;;3.10;85.17;97445.34;5057029;28;19921;-84
2023/02/25 05:00:09;;;;;;;;;;;;;;;2.81;85.17;97434.78;5049287;28;19928;-84
2023/02/25 05:02:34;;;;;;;;;;;;;;;3.04;85.63;97447.88;5048338;28;19920;-86
2023/02/25 05:05:00;;;;;;;;;;;;;;;2.88;86.11;97442.56;5044233;28;20465;-85
2023/02/25 05:07:25;;;;;;;;;;;;;;;2.96;85.57;97448.25;5045596;28;20010;-85
2023/02/25 05:09:50;;;;;;;;;;;;;;;3.11;85.50;97442.47;5044105;28;19986;-85
2023/02/25 05:12:16;;;;;;;;;;;;;;;3.01;85.75;97442.28;5051571;28;19960;-86
2023/02/25 05:14:41;;;;;;;;;;;;;;;3.10;85.59;97435.63;5049015;28;20407;-86
2023/02/25 05:17:06;;;;;;;;;;;;;;;2.88;86.07;97439.94;5048263;28;19928;-83
2023/02/25 05:19:32;;;;;;;;;;;;;;;3.00;85.51;97433.56;5043383;28;19944;-84
2023/02/25 05:21:57;;;;;;;;;;;;;;;2.91;86.27;97445.50;5046572;28;19921;-84
2023/02/25 05:24:22;;;;;;;;;;;;;;;3.07;85.44;97440.53;5032917;28;19928;-86
2023/02/25 05:26:48;;;;;;;;;;;;;;;2.98;85.52;97440.91;5039277;28;20436;-86
2023/02/25 05:29:13;;;;;;;;;;;;;;;2.94;85.60;97447.69;5064958;28;19943;-85
2023/02/25 05:31:38;;;;;;;;;;;;;;;3.13;85.50;97443.03;5050087;28;19921;-85
2023/02/25 05:34:04;;;;;;;;;;;;;;;2.98;85.71;97454.09;5048358;28;19920;-85
2023/02/25 05:36:29;;;;;;;;;;;;;;;3.03;85.59;97450.75;5031962;28;20008;-85
2023/02/25 05:38:57;;;;;;;;;;;;;;;3.20;84.95;97448.16;5049785;28;19952;-85
2023/02/25 05:41:22;;;;;;;;;;;;;;;3.10;85.41;97445.34;5046033;28;19921;-85
2023/02/25 05:43:48;;;;;;;;;;;;;;;3.12;85.30;97443.28;5061192;28;19924;-85
2023/02/25 05:46:13;;;;;;;;;;;;;;;3.09;85.12;97434.00;5041100;28;19924;-85
2023/02/25 05:48:40;;;;;;;;;;;;;;;3.03;85.38;97433.13;5045016;28;19951;-85
2023/02/25 05:51:06;;;;;;;;;;;;;;;3.03;85.27;97427.84;5047753;28;19921;-85
2023/02/25 05:53:32;;;;;;;;;;;;;;;2.78;85.27;97429.97;5066378;28;19929;-85
2023/02/25 05:55:57;;;;;;;;;;;;;;;2.88;85.66;97426.75;5061902;28;20051;-85
2023/02/25 05:58:23;;;;;;;;;;;;;;;2.93;85.28;97426.84;5041592;28;19970;-82
2023/02/25 06:00:48;;;;;;;;;;;;;;;2.98;84.80;97427.75;5048526;28;19924;-81
2023/02/25 06:03:14;;;;;;;;;;;;;;;2.90;85.67;97441.31;5046476;28;19924;-80
2023/02/25 06:05:40;;;;;;;;;;;;;;;2.88;85.46;97439.94;5047878;28;19931;-82
2023/02/25 06:08:06;;;;;;;;;;;;;;;2.98;85.39;97446.19;5061275;28;20384;-82
2023/02/25 06:10:37;;;;;;;;;;;;;;;2.94;84.62;97449.53;5044476;28;20064;-83
2023/02/25 06:13:02;;;;;;;;;;;;;;;2.93;84.90;97446.09;5042185;28;19928;-83
2023/02/25 06:15:27;;;;;;;;;;;;;;;2.86;85.33;97445.41;5045917;28;19928;-83
2023/02/25 06:17:54;;;;;;;;;;;;;;;2.73;84.96;97458.84;5044614;28;19921;-82
2023/02/25 06:20:19;;;;;;;;;;;;;;;2.90;85.33;97467.66;5039580;28;20039;-84
2023/02/25 06:22:44;;;;;;;;;;;;;;;3.01;85.19;97473.91;5046709;28;20442;-85
2023/02/25 06:25:10;;;;;;;;;;;;;;;2.96;84.91;97464.06;5041891;28;19927;-84
2023/02/25 06:27:35;;;;;;;;;;;;;;;2.76;85.15;97463.66;5033617;28;19929;-85
2023/02/25 06:30:02;;;;;;;;;;;;;;;2.91;84.99;97469.22;5060940;28;19956;-86
2023/02/25 06:32:27;;;;;;;;;;;;;;;2.78;84.80;97473.94;5034136;28;19921;-86
2023/02/25 06:34:52;;;;;;;;;;;;;;;2.76;85.27;97483.94;5044432;28;20313;-86
2023/02/25 06:37:17;;;;;;;;;;;;;;;2.75;86.02;97490.25;5053470;28;20368;-86
2023/02/25 06:39:43;;;;;;;;;;;;;;;3.01;85.44;97495.00;5074471;28;20367;-85
2023/02/25 06:42:08;;;;;;;;;;;;;;;2.97;84.96;97514.94;5043199;28;20342;-85
2023/02/25 06:44:34;;;;;;;;;;;;;;;2.87;85.17;97506.81;5033836;28;21434;-86
2023/02/25 06:46:59;;;;;;;;;;;;;;;3.05;85.56;97509.31;5047561;28;19939;-86
2023/02/25 06:49:24;;;;;;;;;;;;;;;2.86;85.33;97513.91;5068353;28;20003;-86
2023/02/25 06:51:50;;;;;;;;;;;;;;;2.79;86.06;97518.53;5062416;28;19921;-85
2023/02/25 06:54:15;;;;;;;;;;;;;;;2.66;86.55;97523.22;5048824;28;19928;-85
2023/02/25 06:56:42;;;;;;;;;;;;;;;3.00;86.01;97522.38;5050439;28;19998;-85
2023/02/25 06:59:11;;;;;;;;;;;;;;;2.81;86.95;97536.72;5043781;28;20445;-86
2023/02/25 07:01:36;;;;;;;;;;;;;;;2.65;86.17;97540.06;5041467;28;19921;-86
2023/02/25 07:04:02;;;;;;;;;;;;;;;2.67;87.29;97549.34;5045868;28;21668;-87
2023/02/25 07:06:27;;;;;;;;;;;;;;;2.40;86.71;97556.09;5042086;28;19925;-86
2023/02/25 07:08:52;;;;;;;;;;;;;;;1.21;90.99;97564.06;5044973;28;19921;-86
2023/02/25 07:11:18;;;;;;;;;;;;;;;1.10;91.14;97572.69;5043340;28;20285;-87
2023/02/25 07:13:46;;;;;;;;;;;;;;;2.04;90.43;97579.94;5045651;28;19940;-87
2023/02/25 07:16:12;;;;;;;;;;;;;;;2.49;87.70;97562.59;5048851;28;21788;-87
2023/02/25 07:18:37;;;;;;;;;;;;;;;2.63;86.58;97558.72;5046880;28;19921;-87
2023/02/25 07:21:02;;;;;;;;;;;;;;;2.59;86.07;97569.94;5053541;28;19976;-87
2023/02/25 07:23:28;;;;;;;;;;;;;;;2.45;85.41;97564.09;5054720;28;20416;-86
2023/02/25 07:25:53;;;;;;;;;;;;;;;2.19;85.86;97565.34;5046533;28;19928;-86
2023/02/25 07:28:18;;;;;;;;;;;;;;;2.14;86.33;97569.69;5036605;28;19935;-86
2023/02/25 07:30:44;;;;;;;;;;;;;;;2.41;86.63;97567.41;5047434;28;20012;-86
2023/02/25 07:33:09;;;;;;;;;;;;;;;2.66;85.53;97570.66;5054875;28;20051;-87
2023/02/25 07:35:35;;;;;;;;;;;;;;;2.57;85.61;97575.44;5046121;28;19925;-86
2023/02/25 07:38:00;;;;;;;;;;;;;;;2.56;85.35;97570.41;5050711;28;19924;-85
2023/02/25 07:40:25;;;;;;;;;;;;;;;2.51;85.79;97572.94;5036083;28;19929;-86
2023/02/25 07:42:50;;;;;;;;;;;;;;;2.24;85.80;97578.63;5064407;28;19928;-86
2023/02/25 07:45:16;;;;;;;;;;;;;;;2.26;86.12;97587.09;5045699;28;20319;-86
2023/02/25 07:47:41;;;;;;;;;;;;;;;2.32;86.12;97585.38;5045797;28;20011;-86
2023/02/25 07:50:08;;;;;;;;;;;;;;;2.49;85.31;97596.84;5050116;28;20348;-87
2023/02/25 07:52:35;;;;;;;;;;;;;;;2.66;86.01;97583.81;5033406;28;19921;-86
2023/02/25 07:55:00;;;;;;;;;;;;;;;2.57;85.29;97587.81;5049100;28;19940;-87
2023/02/25 07:57:27;;;;;;;;;;;;;;;2.64;85.04;97594.59;5048206;28;19978;-87
2023/02/25 07:59:52;;;;;;;;;;;;;;;2.76;85.25;97598.00;5051710;28;20383;-87
2023/02/25 08:02:17;;;;;;;;;;;;;;;2.54;86.27;97596.97;5052519;28;19936;-84
2023/02/25 08:04:43;;;;;;;;;;;;;;;2.68;85.78;97595.72;5049213;28;19933;-86
2023/02/25 08:07:08;;;;;;;;;;;;;;;2.76;86.17;97607.75;5067171;28;19935;-85
2023/02/25 08:09:33;;;;;;;;;;;;;;;2.81;86.08;97613.13;5050085;28;19921;-86
2023/02/25 08:11:58;;;;;;;;;;;;;;;2.40;86.25;97610.59;5047874;28;19955;-84
2023/02/25 08:14:23;;;;;;;;;;;;;;;1.95;87.05;97615.50;5049657;28;19929;-84
2023/02/25 08:16:49;;;;;;;;;;;;;;;2.04;87.76;97622.03;5051101;28;19929;-84
2023/02/25 08:19:15;;;;;;;;;;;;;;;1.62;90.52;97626.44;5067861;28;19925;-84
2023/02/25 08:21:40;;;;;;;;;;;;;;;1.33;90.08;97622.75;5066584;28;19928;-84
2023/02/25 08:24:06;;;;;;;;;;;;;;;1.78;90.22;97625.84;5047179;28;19986;-84
2023/02/25 08:26:32;;;;;;;;;;;;;;;1.79;90.34;97637.16;5061502;28;19974;-86
2023/02/25 08:28:57;;;;;;;;;;;;;;;1.58;90.68;97638.44;5064162;28;20003;-85
2023/02/25 08:31:23;;;;;;;;;;;;;;;1.26;91.50;97642.25;5047846;28;19939;-85
2023/02/25 08:33:55;;;;;;;;;;;;;;;1.82;90.38;97644.59;5050677;28;19925;-86
2023/02/25 08:36:22;;;;;;;;;;;;;;;2.35;89.15;97640.22;5029519;28;19933;-86
2023/02/25 08:38:49;;;;;;;;;;;;;;;2.08;88.23;97636.34;5057122;28;19965;-85
2023/02/25 08:41:14;;;;;;;;;;;;;;;2.46;87.32;97641.25;5047615;28;19979;-84
2023/02/25 08:43:39;;;;;;;;;;;;;;;2.61;86.47;97645.06;5046284;28;20351;-87
2023/02/25 08:46:05;;;;;;;;;;;;;;;2.59;85.39;97638.41;5049270;28;19925;-86
2023/02/25 08:48:30;;;;;;;;;;;;;;;2.50;86.55;97645.84;5069201;28;19982;-86
2023/02/25 08:51:00;;;;;;;;;;;;;;;2.76;86.30;97645.44;5047903;28;19925;-87
2023/02/25 08:53:26;;;;;;;;;;;;;;;2.50;86.86;97651.13;5050827;28;19917;-86
2023/02/25 08:55:52;;;;;;;;;;;;;;;2.69;85.26;97651.81;5049025;28;19935;-86
2023/02/25 08:58:18;;;;;;;;;;;;;;;2.18;87.07;97639.25;5047315;28;19935;-86
2023/02/25 09:00:43;;;;;;;;;;;;;;;2.68;87.59;97651.03;5049596;28;20007;-86
2023/02/25 09:03:08;;;;;;;;;;;;;;;2.44;85.83;97659.13;5050084;28;19917;-85
2023/02/25 09:05:33;;;;;;;;;;;;;;;2.59;86.14;97660.31;5052052;28;20502;-85
2023/02/25 09:07:58;;;;;;;;;;;;;;;2.75;86.15;97664.88;5036290;28;19929;-85
2023/02/25 09:10:24;;;;;;;;;;;;;;;1.97;87.65;97674.75;5052780;28;20000;-87
2023/02/25 09:12:49;;;;;;;;;;;;;;;1.66;87.99;97674.94;5032503;28;19929;-86
2023/02/25 09:15:14;;;;;;;;;;;;;;;1.48;89.10;97688.09;5041884;28;19978;-86
2023/02/25 09:17:40;;;;;;;;;;;;;;;1.25;87.08;97691.38;5034589;28;19920;-85
2023/02/25 09:20:10;;;;;;;;;;;;;;;1.07;89.68;97701.84;5065784;28;19932;-85
2023/02/25 09:22:37;;;;;;;;;;;;;;;0.58;89.68;97696.59;5030687;28;19924;-84
2023/02/25 09:25:03;;;;;;;;;;;;;;;1.17;91.37;97702.19;5068142;28;20011;-85
2023/02/25 09:27:28;;;;;;;;;;;;;;;1.94;90.06;97698.09;5064066;28;19917;-85
2023/02/25 09:29:53;;;;;;;;;;;;;;;1.63;88.88;97704.31;5032613;28;19921;-85
2023/02/25 09:32:19;;;;;;;;;;;;;;;2.35;88.68;97713.94;5044193;28;19928;-85
2023/02/25 09:34:45;;;;;;;;;;;;;;;2.18;88.17;97702.44;5044849;28;19927;-85
2023/02/25 09:37:13;;;;;;;;;;;;;;;2.80;87.51;97696.63;5048799;28;19928;-84
2023/02/25 09:39:39;;;;;;;;;;;;;;;2.91;85.90;97700.31;5047183;28;19979;-85
2023/02/25 09:42:08;;;;;;;;;;;;;;;3.02;85.82;97696.88;5054578;28;20372;-85
2023/02/25 09:44:39;;;;;;;;;;;;;;;3.10;85.35;97690.47;5052352;28;19916;-84
2023/02/25 09:47:23;;;;;;;;;;;;;;;3.14;84.56;97699.53;5050145;28;19917;-84
2023/02/25 09:49:51;;;;;;;;;;;;;;;3.04;84.97;97693.00;5048453;28;19921;-84
2023/02/25 09:52:21;;;;;;;;;;;;;;;3.02;84.75;97702.16;5054945;28;19938;-84
2023/02/25 09:54:49;;;;;;;;;;;;;;;3.07;84.44;97702.28;5053615;28;19925;-84
2023/02/25 09:57:20;;;;;;;;;;;;;;;2.93;84.96;97695.59;5056586;28;19964;-86
2023/02/25 09:59:46;;;;;;;;;;;;;;;2.93;85.14;97709.59;5050069;28;20449;-85
2023/02/25 10:02:28;;;;;;;;;;;;;;;2.72;85.72;97706.69;5066793;28;20015;-86
2023/02/25 10:05:17;;;;;;;;;;;;;;;3.06;84.88;97707.78;5054313;28;19928;-85
2023/02/25 10:07:55;;;;;;;;;;;;;;;2.59;84.79;97702.44;5047661;28;19948;-85
2023/02/25 10:10:25;;;;;;;;;;;;;;;2.82;85.23;97715.66;5045127;28;19924;-85
2023/02/25 10:12:54;;;;;;;;;;;;;;;2.95;86.02;97714.63;5049904;28;19917;-86
2023/02/25 10:15:35;;;;;;;;;;;;;;;3.29;84.92;97713.88;5068361;28;19928;-86
2023/02/25 10:18:24;;;;;;;;;;;;;;;3.24;83.44;97715.56;5049102;28;19924;-86
2023/02/25 10:21:09;;;;;;;;;;;;;;;2.72;81.30;97712.78;5041623;28;21260;-84
2023/02/25 10:23:42;;;;;;;;;;;;;;;2.82;80.62;97707.75;5067203;28;19975;-84
2023/02/25 10:26:16;;;;;;;;;;;;;;;3.15;82.20;97703.75;5053168;28;19924;-85
2023/02/25 10:28:41;;;;;;;;;;;;;;;3.46;82.67;97719.22;5055590;28;19916;-85
2023/02/25 10:31:08;;;;;;;;;;;;;;;3.41;81.34;97717.28;5049513;28;19921;-85
2023/02/25 10:33:39;;;;;;;;;;;;;;;3.29;80.38;97719.13;5068046;28;20278;-84
2023/02/25 10:36:16;;;;;;;;;;;;;;;3.57;80.84;97723.69;5065518;28;20410;-86
2023/02/25 10:38:50;;;;;;;;;;;;;;;3.35;78.94;97735.84;5071302;28;19921;-86
2023/02/25 10:41:15;;;;;;;;;;;;;;;2.65;80.30;97737.59;5036061;28;19927;-86
2023/02/25 10:43:41;;;;;;;;;;;;;;;2.14;77.27;97741.53;5055246;28;20000;-86
2023/02/25 10:46:11;;;;;;;;;;;;;;;1.88;79.72;97747.09;5054720;28;19916;-84
2023/02/25 10:48:38;;;;;;;;;;;;;;;2.43;81.32;97742.56;5059885;28;19939;-86
2023/02/25 10:51:04;;;;;;;;;;;;;;;1.80;80.12;97750.03;5072295;28;19917;-86
2023/02/25 10:53:30;;;;;;;;;;;;;;;2.21;83.02;97762.50;5053969;28;19987;-87
2023/02/25 10:55:57;;;;;;;;;;;;;;;1.34;81.45;97770.75;5071600;28;20391;-86
2023/02/25 10:58:37;;;;;;;;;;;;;;;1.38;84.72;97785.88;5059942;28;20494;-86
2023/02/25 11:01:03;;;;;;;;;;;;;;;1.66;85.79;97814.31;5046213;28;20012;-86
2023/02/25 11:03:30;;;;;;;;;;;;;;;0.78;85.62;97818.06;5083755;28;20018;-86
2023/02/25 11:06:27;;;;;;;;;;;;;;;1.59;86.46;97818.03;5074945;28;19927;-86
2023/02/25 11:08:55;;;;;;;;;;;;;;;2.22;84.30;97806.25;5036548;28;19993;-86
2023/02/25 11:11:25;;;;;;;;;;;;;;;2.55;83.87;97803.19;5050341;28;19921;-87
2023/02/25 11:13:58;;;;;;;;;;;;;;;2.72;82.50;97797.06;5066166;28;20353;-86
2023/02/25 11:16:24;;;;;;;;;;;;;;;2.72;82.22;97797.06;5070511;28;19920;-86
2023/02/25 11:18:51;;;;;;;;;;;;;;;2.70;82.41;97795.69;5037351;28;19931;-86
2023/02/25 11:21:26;;;;;;;;;;;;;;;2.43;81.97;97789.97;5053594;28;19921;-85
2023/02/25 11:23:53;;;;;;;;;;;;;;;2.76;82.10;97794.78;5072882;28;19916;-87
2023/02/25 11:26:36;;;;;;;;;;;;;;;2.70;81.44;97798.31;5074015;28;19920;-87
2023/02/25 11:29:24;;;;;;;;;;;;;;;2.84;81.28;97797.91;5071706;28;19930;-86
2023/02/25 11:31:52;;;;;;;;;;;;;;;2.70;81.73;97790.41;5056255;28;20016;-86
2023/02/25 11:34:29;;;;;;;;;;;;;;;2.94;81.37;97800.00;5037027;28;19970;-86
2023/02/25 11:36:57;;;;;;;;;;;;;;;2.78;82.15;97790.91;5051835;28;19925;-86
2023/02/25 11:39:25;;;;;;;;;;;;;;;3.00;81.91;97794.63;5053631;28;19924;-87
2023/02/25 11:41:54;;;;;;;;;;;;;;;2.80;82.19;97791.47;5058299;28;19968;-87
2023/02/25 11:44:39;;;;;;;;;;;;;;;2.82;81.71;97785.97;5056033;28;19920;-87
2023/02/25 11:47:23;;;;;;;;;;;;;;;2.82;82.02;97778.88;5072206;28;20364;-87
2023/02/25 11:50:07;;;;;;;;;;;;;;;2.85;82.41;97778.44;5074119;28;19921;-85
2023/02/25 11:52:53;;;;;;;;;;;;;;;2.20;81.50;97780.16;5069948;28;19917;-86
2023/02/25 11:55:23;;;;;;;;;;;;;;;2.80;82.79;97782.75;5053362;28;19924;-86
2023/02/25 11:57:52;;;;;;;;;;;;;;;2.55;79.92;97782.13;5072024;28;19917;-86
2023/02/25 12:00:31;;;;;;;;;;;;;;;3.27;83.55;97784.47;5051339;28;19917;-86
2023/02/25 12:03:16;;;;;;;;;;;;;;;2.87;79.68;97805.38;5075315;28;19919;-86
2023/02/25 12:05:52;;;;;;;;;;;;;;;1.63;78.94;97824.47;5055591;28;19916;-85
2023/02/25 12:08:38;;;;;;;;;;;;;;;1.23;81.88;97822.19;5056131;28;19923;-86
2023/02/25 12:11:10;;;;;;;;;;;;;;;1.56;82.67;97831.59;5056836;28;20406;-85
2023/02/25 12:13:35;;;;;;;;;;;;;;;1.31;83.47;97824.53;5058393;28;19913;-85
2023/02/25 12:16:01;;;;;;;;;;;;;;;1.33;82.28;97838.25;5065279;28;19917;-87
2023/02/25 12:18:32;;;;;;;;;;;;;;;1.38;82.83;97830.56;5074522;28;20360;-88
2023/02/25 12:21:13;;;;;;;;;;;;;;;1.27;80.04;97844.38;5043745;28;20075;-88
2023/02/25 12:23:58;;;;;;;;;;;;;;;2.07;81.19;97848.72;5055369;28;20292;-88
2023/02/25 12:26:47;;;;;;;;;;;;;;;2.79;82.46;97844.41;5080699;28;20018;-86
2023/02/25 12:29:27;;;;;;;;;;;;;;;1.72;78.19;97842.41;5045942;28;19917;-85
2023/02/25 12:32:11;;;;;;;;;;;;;;;2.14;80.51;97851.28;5070487;28;19935;-85
2023/02/25 12:35:05;;;;;;;;;;;;;;;2.09;79.84;97851.94;5048736;28;19924;-85
2023/02/25 12:37:49;;;;;;;;;;;;;;;2.06;82.60;97847.09;5073474;28;19956;-86
2023/02/25 12:40:39;;;;;;;;;;;;;;;1.74;80.83;97852.69;5072663;28;19928;-85
2023/02/25 12:43:23;;;;;;;;;;;;;;;2.40;81.27;97847.53;5067001;28;20413;-86
2023/02/25 12:46:14;;;;;;;;;;;;;;;2.30;79.42;97853.31;5056687;28;19939;-86
2023/02/25 12:48:45;;;;;;;;;;;;;;;2.80;80.94;97852.06;5071076;28;19917;-86
2023/02/25 12:51:31;;;;;;;;;;;;;;;2.65;79.79;97864.03;5066266;28;19912;-86
2023/02/25 12:53:56;;;;;;;;;;;;;;;2.39;79.55;97861.72;5051206;28;20405;-87
2023/02/25 12:56:24;;;;;;;;;;;;;;;2.47;78.82;97871.97;5042329;28;19944;-87
2023/02/25 12:59:05;;;;;;;;;;;;;;;2.70;78.87;97874.72;5069376;28;19925;-87
2023/02/25 13:01:41;;;;;;;;;;;;;;;2.71;77.50;97878.97;5049934;28;20302;-87
2023/02/25 13:04:13;;;;;;;;;;;;;;;2.32;76.64;97880.22;5053555;28;19917;-87
2023/02/25 13:06:54;;;;;;;;;;;;;;;2.72;79.39;97886.66;5052517;28;19978;-86